Time;durP1;ratioP1;P1;durP2;ratioP2;P2;SDS_P1;SDS_P2;PMS_P1;PMS_P2;Temp;Humidity;BMP_temperature;BMP_pressure;BME280_temperature;BME280_humidity;BME280_pressure;Samples;Min_cycle;Max_cycle;Signal;HPM_P1;HPM_P2
2022/01/04 00:01:57;;;;;;;8.63;6.88;;;;;;;-140.79;100.00;63287.88;5025380;28;20048;-54
2022/01/04 00:04:23;;;;;;;8.57;6.78;;;;;;;-140.79;100.00;63287.88;5025548;28;20060;-54
2022/01/04 00:06:48;;;;;;;8.82;6.63;;;;;;;-140.79;100.00;63287.88;5024341;28;20033;-54
2022/01/04 00:09:14;;;;;;;9.13;6.95;;;;;;;-140.79;100.00;63287.88;5025762;28;20036;-54
2022/01/04 00:14:17;;;;;;;9.07;7.03;;;;;;;-140.79;100.00;63287.88;5025662;28;20065;-54
2022/01/04 00:16:43;;;;;;;8.85;6.53;;;;;;;-140.79;100.00;63287.88;5025402;28;20068;-55
2022/01/04 00:19:08;;;;;;;9.27;7.30;;;;;;;-140.79;100.00;63287.88;5040731;28;20411;-54
2022/01/04 00:21:34;;;;;;;8.68;6.60;;;;;;;-140.79;100.00;63287.88;5025444;28;20029;-54
2022/01/04 00:24:00;;;;;;;8.65;6.57;;;;;;;-140.79;100.00;63287.88;5024729;28;20502;-54
2022/01/04 00:26:26;;;;;;;10.05;7.30;;;;;;;-140.79;100.00;63287.88;5025156;28;20454;-54
2022/01/04 00:28:51;;;;;;;8.80;6.80;;;;;;;-140.79;100.00;63287.88;5025295;28;20037;-54
2022/01/04 00:31:16;;;;;;;8.52;6.72;;;;;;;-140.79;100.00;63287.88;5025366;28;20048;-54
2022/01/04 00:33:42;;;;;;;8.27;5.97;;;;;;;-140.79;100.00;63287.88;5024631;28;20423;-54
2022/01/04 00:36:07;;;;;;;9.80;7.15;;;;;;;-140.79;100.00;63287.88;5025251;28;20393;-54
2022/01/04 00:38:33;;;;;;;10.27;7.18;;;;;;;-140.79;100.00;63287.88;5025045;28;20022;-54
2022/01/04 00:40:58;;;;;;;9.10;6.32;;;;;;;-140.79;100.00;63287.88;5025220;28;20041;-53
2022/01/04 00:43:24;;;;;;;8.57;6.60;;;;;;;-140.79;100.00;63287.88;5025055;28;20534;-54
2022/01/04 00:45:49;;;;;;;8.48;6.63;;;;;;;-140.79;100.00;63287.88;5024456;28;20036;-54
2022/01/04 00:50:40;;;;;;;8.75;6.57;;;;;;;-140.79;100.00;63287.88;5024919;28;20544;-53
2022/01/04 00:53:06;;;;;;;8.77;6.88;;;;;;;-140.79;100.00;63287.88;5024817;28;20041;-53
2022/01/04 00:55:32;;;;;;;8.23;6.32;;;;;;;-140.79;100.00;63287.88;5024850;28;20271;-54
2022/01/04 00:57:57;;;;;;;8.30;6.00;;;;;;;-140.79;100.00;63287.88;5024366;28;20475;-54
2022/01/04 01:00:23;;;;;;;9.85;6.50;;;;;;;-140.79;100.00;63287.88;5024814;28;20031;-53
2022/01/04 01:02:48;;;;;;;7.95;6.47;;;;;;;-140.79;100.00;63287.88;5024508;28;20035;-54
2022/01/04 01:05:14;;;;;;;8.68;6.50;;;;;;;-140.79;100.00;63287.88;5024786;28;20037;-52
2022/01/04 01:07:40;;;;;;;8.80;6.65;;;;;;;-140.79;100.00;63287.88;5024790;28;20664;-54
2022/01/04 01:12:33;;;;;;;8.30;6.53;;;;;;;-140.79;100.00;63287.88;5039714;28;20499;-54
2022/01/04 01:14:58;;;;;;;8.38;6.60;;;;;;;-140.79;100.00;63287.88;5026760;28;20075;-54
2022/01/04 01:17:23;;;;;;;7.82;6.45;;;;;;;-140.79;100.00;63287.88;5031130;28;20025;-54
2022/01/04 01:19:49;;;;;;;8.90;6.28;;;;;;;-140.79;100.00;63287.88;5030858;28;20025;-54
2022/01/04 01:22:15;;;;;;;9.50;6.82;;;;;;;-140.79;100.00;63287.88;5031276;28;20465;-54
2022/01/04 01:24:40;;;;;;;8.10;6.20;;;;;;;-140.79;100.00;63287.88;5031144;28;20491;-54
2022/01/04 01:27:06;;;;;;;7.72;5.97;;;;;;;-140.79;100.00;63287.88;5031193;28;20033;-54
2022/01/04 01:29:31;;;;;;;8.70;6.72;;;;;;;-140.79;100.00;63287.88;5031398;28;20615;-55
2022/01/04 01:31:56;;;;;;;8.65;6.28;;;;;;;-140.79;100.00;63287.88;5031173;28;20500;-56
2022/01/04 01:34:23;;;;;;;8.70;6.10;;;;;;;-140.79;100.00;63287.88;5031148;28;20041;-53
2022/01/04 01:36:49;;;;;;;8.27;6.13;;;;;;;-140.79;100.00;63287.88;5031418;28;20486;-55
2022/01/04 01:39:14;;;;;;;8.95;6.65;;;;;;;-140.79;100.00;63287.88;5031103;28;20030;-56
2022/01/04 01:41:40;;;;;;;8.15;6.47;;;;;;;-140.79;100.00;63287.88;5031278;28;20040;-54
2022/01/04 01:44:05;;;;;;;8.45;6.47;;;;;;;-140.79;100.00;63287.88;5030749;28;20040;-54
2022/01/04 01:46:31;;;;;;;8.60;6.38;;;;;;;-140.79;100.00;63287.88;5031115;28;20528;-54
2022/01/04 01:48:56;;;;;;;9.30;6.43;;;;;;;-140.79;100.00;63287.88;5030996;28;20029;-54
2022/01/04 01:51:23;;;;;;;8.55;6.35;;;;;;;-140.79;100.00;63287.88;5031155;28;20041;-54
2022/01/04 01:53:48;;;;;;;7.82;6.20;;;;;;;-140.79;100.00;63287.88;5029472;28;20092;-54
2022/01/04 01:56:14;;;;;;;8.23;6.25;;;;;;;-140.79;100.00;63287.88;5046386;28;20492;-54
2022/01/04 01:58:39;;;;;;;8.20;6.20;;;;;;;-140.79;100.00;63287.88;5030904;28;20508;-53
2022/01/04 02:01:04;;;;;;;9.15;6.30;;;;;;;-140.79;100.00;63287.88;5030839;28;20037;-53
2022/01/04 02:03:30;;;;;;;8.93;6.72;;;;;;;-140.79;100.00;63287.88;5030825;28;20034;-54
2022/01/04 02:05:55;;;;;;;8.55;6.28;;;;;;;-140.79;100.00;63287.88;5030634;28;20029;-54
2022/01/04 02:08:21;;;;;;;8.57;6.10;;;;;;;-140.79;100.00;63287.88;5046195;28;20030;-54
2022/01/04 02:10:46;;;;;;;8.38;5.70;;;;;;;-140.79;100.00;63287.88;5029502;28;20026;-53
2022/01/04 02:13:12;;;;;;;8.65;6.05;;;;;;;-140.79;100.00;63287.88;5029584;28;20041;-55
2022/01/04 02:15:37;;;;;;;8.45;6.00;;;;;;;-140.79;100.00;63287.88;5030733;28;20037;-53
2022/01/04 02:18:03;;;;;;;9.05;6.80;;;;;;;-140.79;100.00;63287.88;5045828;28;20087;-52
2022/01/04 02:20:28;;;;;;;9.32;6.60;;;;;;;-140.79;100.00;63287.88;5030699;28;20033;-54
2022/01/04 02:22:54;;;;;;;8.25;5.93;;;;;;;-140.79;100.00;63287.88;5046055;28;20153;-54
2022/01/04 02:25:19;;;;;;;8.85;5.93;;;;;;;-140.79;100.00;63287.88;5046213;28;20033;-54
2022/01/04 02:27:45;;;;;;;8.38;6.20;;;;;;;-140.79;100.00;63287.88;5026203;28;20476;-54
2022/01/04 02:30:14;;;;;;;8.38;6.18;;;;;;;-140.79;100.00;63287.88;5027592;28;20021;-53
2022/01/04 02:32:39;;;;;;;8.38;6.53;;;;;;;-140.79;100.00;63287.88;5027399;28;20048;-54
2022/01/04 02:35:05;;;;;;;8.23;6.35;;;;;;;-140.79;100.00;63287.88;5027589;28;20025;-54
2022/01/04 02:37:32;;;;;;;7.95;5.95;;;;;;;-140.79;100.00;63287.88;5027756;28;20025;-54
2022/01/04 02:39:58;;;;;;;8.00;6.07;;;;;;;-140.79;100.00;63287.88;5027127;28;20084;-53
2022/01/04 02:42:24;;;;;;;8.55;6.07;;;;;;;-140.79;100.00;63287.88;5027477;28;20640;-54
2022/01/04 02:44:49;;;;;;;8.85;6.38;;;;;;;-140.79;100.00;63287.88;5027619;28;20472;-53
2022/01/04 02:47:15;;;;;;;7.95;5.95;;;;;;;-140.79;100.00;63287.88;5027434;28;20026;-54
2022/01/04 02:49:40;;;;;;;7.43;5.35;;;;;;;-140.79;100.00;63287.88;5027490;28;20542;-54
2022/01/04 02:52:06;;;;;;;7.72;5.65;;;;;;;-140.79;100.00;63287.88;5026983;28;20112;-53
2022/01/04 02:54:31;;;;;;;7.85;6.00;;;;;;;-140.79;100.00;63287.88;5027278;28;20041;-55
2022/01/04 02:56:57;;;;;;;7.85;5.65;;;;;;;-140.79;100.00;63287.88;5027259;28;20041;-54
2022/01/04 02:59:22;;;;;;;8.00;5.70;;;;;;;-140.79;100.00;63287.88;5042516;28;20040;-54
2022/01/04 03:01:48;;;;;;;7.30;5.93;;;;;;;-140.79;100.00;63287.88;5026976;28;20041;-54
2022/01/04 03:04:13;;;;;;;8.43;6.10;;;;;;;-140.79;100.00;63287.88;5027180;28;20029;-54
2022/01/04 03:06:38;;;;;;;7.50;5.72;;;;;;;-140.79;100.00;63287.88;5027200;28;20029;-54
2022/01/04 03:09:04;;;;;;;8.18;5.68;;;;;;;-140.79;100.00;63287.88;5027019;28;20037;-54
2022/01/04 03:11:30;;;;;;;8.10;5.70;;;;;;;-140.79;100.00;63287.88;5027029;28;20033;-53
2022/01/04 03:13:56;;;;;;;7.45;5.78;;;;;;;-140.79;100.00;63287.88;5026445;28;20071;-54
2022/01/04 03:16:21;;;;;;;7.80;5.70;;;;;;;-140.79;100.00;63287.88;5027009;28;20037;-54
2022/01/04 03:19:29;;;;;;;7.32;5.88;;;;;;;-140.79;100.00;63287.88;5026630;28;20029;-53
2022/01/04 03:21:36;;;;;;;7.03;6.05;;;;;;;-140.79;100.00;63287.88;5026283;28;20128;-54
2022/01/04 03:24:02;;;;;;;7.72;5.90;;;;;;;-140.79;100.00;63287.88;5026281;28;20480;-52
2022/01/04 03:26:28;;;;;;;6.82;4.95;;;;;;;-140.79;100.00;63287.88;5025380;28;20032;-53
2022/01/04 03:28:53;;;;;;;7.20;5.25;;;;;;;-140.79;100.00;63287.88;5026539;28;20038;-55
2022/01/04 03:31:19;;;;;;;6.85;5.88;;;;;;;-140.79;100.00;63287.88;5026623;28;20033;-53
2022/01/04 03:33:44;;;;;;;7.85;6.20;;;;;;;-140.79;100.00;63287.88;5026401;28;20033;-53
2022/01/04 03:36:10;;;;;;;6.53;5.28;;;;;;;-140.79;100.00;63287.88;5026296;28;20026;-54
2022/01/04 03:38:35;;;;;;;7.80;5.60;;;;;;;-140.79;100.00;63287.88;5025994;28;20033;-54
2022/01/04 03:41:01;;;;;;;7.10;5.50;;;;;;;-140.79;100.00;63287.88;5026516;28;20079;-53
2022/01/04 03:43:27;;;;;;;6.65;5.03;;;;;;;-140.79;100.00;63287.88;5026656;28;20392;-53
2022/01/04 03:45:52;;;;;;;7.07;5.50;;;;;;;-140.79;100.00;63287.88;5025982;28;20522;-54
2022/01/04 03:48:18;;;;;;;7.85;5.80;;;;;;;-140.79;100.00;63287.88;5026192;28;20022;-54
2022/01/04 03:50:44;;;;;;;8.20;5.57;;;;;;;-140.79;100.00;63287.88;5026441;28;20033;-53
2022/01/04 03:53:09;;;;;;;7.35;5.68;;;;;;;-140.79;100.00;63287.88;5026089;28;20376;-53
2022/01/04 03:55:35;;;;;;;7.53;5.38;;;;;;;-140.79;100.00;63287.88;5025897;28;20040;-53
2022/01/04 03:58:00;;;;;;;6.72;5.43;;;;;;;-140.79;100.00;63287.88;5025664;28;20041;-54
2022/01/04 04:00:25;;;;;;;8.05;6.10;;;;;;;-140.79;100.00;63287.88;5026080;28;20159;-54
2022/01/04 04:02:51;;;;;;;7.93;5.43;;;;;;;-140.79;100.00;63287.88;5024454;28;20075;-54
2022/01/04 04:05:16;;;;;;;7.53;5.10;;;;;;;-140.79;100.00;63287.88;5025848;28;20084;-54
2022/01/04 04:07:42;;;;;;;7.55;5.78;;;;;;;-140.79;100.00;63287.88;5025893;28;20038;-53
2022/01/04 04:10:08;;;;;;;7.78;5.97;;;;;;;-140.79;100.00;63287.88;5025384;28;20103;-54
2022/01/04 04:12:34;;;;;;;7.78;5.55;;;;;;;-140.79;100.00;63287.88;5025500;28;20033;-53
2022/01/04 04:15:03;;;;;;;7.82;5.80;;;;;;;-140.79;100.00;63287.88;5025734;28;20048;-54
2022/01/04 04:17:32;;;;;;;7.15;5.18;;;;;;;-140.79;100.00;63287.88;5025482;28;20022;-54
2022/01/04 04:19:57;;;;;;;7.15;5.68;;;;;;;-140.79;100.00;63287.88;5025335;28;20080;-54
2022/01/04 04:22:23;;;;;;;7.57;5.53;;;;;;;-140.79;100.00;63287.88;5025205;28;20069;-54
2022/01/04 04:24:48;;;;;;;8.40;5.53;;;;;;;-140.79;100.00;63287.88;5025394;28;20052;-53
2022/01/04 04:27:14;;;;;;;7.40;5.30;;;;;;;-140.79;100.00;63287.88;5025425;28;20460;-54
2022/01/04 04:29:39;;;;;;;6.40;5.00;;;;;;;-140.79;100.00;63287.88;5025502;28;20033;-53
2022/01/04 04:32:05;;;;;;;7.15;5.40;;;;;;;-140.79;100.00;63287.88;5025270;28;20045;-54
2022/01/04 04:34:31;;;;;;;7.95;5.20;;;;;;;-140.79;100.00;63287.88;5025072;28;20056;-53
2022/01/04 04:36:56;;;;;;;7.90;5.80;;;;;;;-140.79;100.00;63287.88;5025228;28;20037;-54
2022/01/04 04:39:22;;;;;;;7.85;5.47;;;;;;;-140.79;100.00;63287.88;5025494;28;20041;-54
2022/01/04 04:41:48;;;;;;;6.82;4.93;;;;;;;-140.79;100.00;63287.88;5025106;28;20068;-54
2022/01/04 04:44:13;;;;;;;7.13;5.05;;;;;;;-140.79;100.00;63287.88;5024966;28;20033;-53
2022/01/04 04:46:39;;;;;;;8.05;5.32;;;;;;;-140.79;100.00;63287.88;5040420;28;20079;-54
2022/01/04 04:49:05;;;;;;;6.47;4.82;;;;;;;-140.79;100.00;63287.88;5024763;28;20084;-54
2022/01/04 04:51:31;;;;;;;6.55;4.85;;;;;;;-140.79;100.00;63287.88;5024736;28;20051;-54
2022/01/04 04:53:56;;;;;;;7.28;5.63;;;;;;;-140.79;100.00;63287.88;5024698;28;20033;-54
2022/01/04 04:56:21;;;;;;;7.35;5.20;;;;;;;-140.79;100.00;63287.88;5025101;28;20021;-53
2022/01/04 04:58:47;;;;;;;8.27;5.47;;;;;;;-140.79;100.00;63287.88;5024696;28;20033;-53
2022/01/04 05:01:12;;;;;;;7.05;5.22;;;;;;;-140.79;100.00;63287.88;5024996;28;20033;-53
2022/01/04 05:03:38;;;;;;;6.68;4.90;;;;;;;-140.79;100.00;63287.88;5025033;28;20029;-54
2022/01/04 05:06:03;;;;;;;7.28;5.50;;;;;;;-140.79;100.00;63287.88;5024674;28;20030;-54
2022/01/04 05:08:29;;;;;;;6.97;5.22;;;;;;;-140.79;100.00;63287.88;5024893;28;20029;-54
2022/01/04 05:10:54;;;;;;;7.07;5.10;;;;;;;-140.79;100.00;63287.88;5024892;28;20102;-54
2022/01/04 05:13:19;;;;;;;6.55;5.10;;;;;;;-140.79;100.00;63287.88;5024900;28;20163;-54
2022/01/04 05:15:45;;;;;;;7.90;5.68;;;;;;;-140.79;100.00;63287.88;5024715;28;20809;-55
2022/01/04 05:18:10;;;;;;;7.45;5.07;;;;;;;-140.79;100.00;63287.88;5023171;28;20038;-54
2022/01/04 05:20:36;;;;;;;7.95;5.80;;;;;;;-140.79;100.00;63287.88;5024639;28;20577;-53
2022/01/04 05:23:01;;;;;;;6.88;5.25;;;;;;;-140.79;100.00;63287.88;5024732;28;20057;-54
2022/01/04 05:25:27;;;;;;;7.32;5.43;;;;;;;-140.79;100.00;63287.88;5024929;28;20388;-54
2022/01/04 05:27:52;;;;;;;7.15;4.95;;;;;;;-140.79;100.00;63287.88;5024886;28;20385;-53
2022/01/04 05:30:17;;;;;;;8.13;5.22;;;;;;;-140.79;100.00;63287.88;5024460;28;20091;-53
2022/01/04 05:32:43;;;;;;;5.85;5.00;;;;;;;-140.79;100.00;63287.88;5024532;28;20025;-54
2022/01/04 05:35:08;;;;;;;7.65;5.32;;;;;;;-140.79;100.00;63287.88;5024547;28;20025;-54
2022/01/04 05:37:34;;;;;;;7.15;5.10;;;;;;;-140.79;100.00;63287.88;5024508;28;20087;-54
2022/01/04 05:39:59;;;;;;;7.45;5.32;;;;;;;-140.79;100.00;63287.88;5024254;28;20116;-54
2022/01/04 05:42:25;;;;;;;6.25;5.00;;;;;;;-140.79;100.00;63287.88;5024640;28;20539;-54
2022/01/04 05:44:50;;;;;;;6.13;5.25;;;;;;;-140.79;100.00;63287.88;5024935;28;20039;-54
2022/01/04 05:47:15;;;;;;;7.05;5.13;;;;;;;-140.79;100.00;63287.88;5024575;28;20030;-54
2022/01/04 05:49:41;;;;;;;6.72;5.18;;;;;;;-140.79;100.00;63287.88;5024630;28;20030;-54
2022/01/04 05:52:07;;;;;;;7.22;5.22;;;;;;;-140.79;100.00;63287.88;5023964;28;20499;-54
2022/01/04 05:54:33;;;;;;;6.25;5.07;;;;;;;-140.79;100.00;63287.88;5022145;28;20095;-53
2022/01/04 05:56:58;;;;;;;5.85;4.90;;;;;;;-140.79;100.00;63287.88;5013339;28;20040;-54
2022/01/04 05:59:24;;;;;;;7.10;5.05;;;;;;;-140.79;100.00;63287.88;5024491;28;20416;-54
2022/01/04 06:01:49;;;;;;;6.38;4.80;;;;;;;-140.79;100.00;63287.88;5026591;28;20041;-54
2022/01/04 06:04:15;;;;;;;7.30;5.13;;;;;;;-140.79;100.00;63287.88;5027920;28;20044;-53
2022/01/04 06:06:41;;;;;;;6.57;5.03;;;;;;;-140.79;100.00;63287.88;5020337;28;20053;-54
2022/01/04 06:09:09;;;;;;;6.60;5.10;;;;;;;-140.79;100.00;63287.88;5018157;28;20112;-54
2022/01/04 06:16:50;;;;;;;5.57;4.70;;;;;;;-140.79;100.00;63287.88;5027236;28;20041;-54
2022/01/04 06:19:16;;;;;;;6.65;4.72;;;;;;;-140.79;100.00;63287.88;5027147;28;20017;-54
2022/01/04 06:21:41;;;;;;;6.28;4.65;;;;;;;-140.79;100.00;63287.88;5027714;28;20033;-54
2022/01/04 06:24:06;;;;;;;5.70;4.70;;;;;;;-140.79;100.00;63287.88;5025923;28;20041;-54
2022/01/04 06:26:32;;;;;;;5.78;4.75;;;;;;;-140.79;100.00;63287.88;5025632;28;20081;-54
2022/01/04 06:28:57;;;;;;;7.07;4.68;;;;;;;-140.79;100.00;63287.88;5042350;28;20113;-54
2022/01/04 06:31:25;;;;;;;6.57;4.50;;;;;;;-140.79;100.00;63287.88;5023214;28;20401;-54
2022/01/04 06:33:50;;;;;;;5.50;4.38;;;;;;;-140.79;100.00;63287.88;5058507;28;20037;-54
2022/01/04 06:36:16;;;;;;;6.15;4.45;;;;;;;-140.79;100.00;63287.88;5026960;28;20116;-54
2022/01/04 06:38:41;;;;;;;6.47;4.60;;;;;;;-140.79;100.00;63287.88;5027085;28;20484;-54
2022/01/04 06:41:07;;;;;;;6.55;4.43;;;;;;;-140.79;100.00;63287.88;5026462;28;20030;-53
2022/01/04 06:43:32;;;;;;;5.60;4.30;;;;;;;-140.79;100.00;63287.88;5026319;28;20508;-55
2022/01/04 06:45:58;;;;;;;5.95;4.50;;;;;;;-140.79;100.00;63287.88;5025451;28;20423;-54
2022/01/04 06:48:23;;;;;;;6.00;4.05;;;;;;;-140.79;100.00;63287.88;5034465;28;20396;-54
2022/01/04 06:50:48;;;;;;;6.30;4.43;;;;;;;-140.79;100.00;63287.88;5020443;28;20678;-53
2022/01/04 06:53:14;;;;;;;5.30;4.10;;;;;;;-140.79;100.00;63287.88;5017798;28;20033;-52
2022/01/04 06:55:39;;;;;;;6.45;4.22;;;;;;;-140.79;100.00;63287.88;5026504;28;20029;-53
2022/01/04 06:58:05;;;;;;;7.07;4.85;;;;;;;-140.79;100.00;63287.88;5016671;28;20026;-55
2022/01/04 07:00:31;;;;;;;6.43;4.65;;;;;;;-140.79;100.00;63287.88;5020602;28;20034;-54
2022/01/04 07:02:56;;;;;;;5.85;4.90;;;;;;;-140.79;100.00;63287.88;5002122;28;20049;-54
2022/01/04 07:05:22;;;;;;;5.30;4.40;;;;;;;-140.79;100.00;63287.88;5031414;28;20022;-54
2022/01/04 07:07:47;;;;;;;5.90;4.63;;;;;;;-140.79;100.00;63287.88;5024200;28;20091;-54
2022/01/04 07:10:13;;;;;;;5.72;4.53;;;;;;;-140.79;100.00;63287.88;5024564;28;20026;-54
2022/01/04 07:12:38;;;;;;;6.50;4.88;;;;;;;-140.79;100.00;63287.88;5023902;28;20030;-54
2022/01/04 07:15:04;;;;;;;5.50;4.30;;;;;;;-140.79;100.00;63287.88;5025191;28;20106;-54
2022/01/04 07:17:29;;;;;;;6.07;4.68;;;;;;;-140.79;100.00;63287.88;5025265;28;20553;-55
2022/01/04 07:19:55;;;;;;;6.40;4.60;;;;;;;-140.79;100.00;63287.88;5025855;28;20040;-54
2022/01/04 07:22:20;;;;;;;6.60;4.75;;;;;;;-140.79;100.00;63287.88;5025645;28;20046;-53
2022/01/04 07:24:46;;;;;;;5.90;4.60;;;;;;;-140.79;100.00;63287.88;5026769;28;20036;-55
2022/01/04 07:27:11;;;;;;;7.25;4.78;;;;;;;-140.79;100.00;63287.88;5019802;28;20009;-54
2022/01/04 07:29:36;;;;;;;6.35;4.80;;;;;;;-140.79;100.00;63287.88;5014372;28;20065;-54
2022/01/04 07:32:02;;;;;;;7.57;5.20;;;;;;;-140.79;100.00;63287.88;5013370;28;20044;-54
2022/01/04 07:34:27;;;;;;;6.30;4.57;;;;;;;-140.79;100.00;63287.88;5025960;28;20045;-54
2022/01/04 07:36:53;;;;;;;5.50;4.45;;;;;;;-140.79;100.00;63287.88;5026151;28;20028;-55
2022/01/04 07:39:18;;;;;;;6.15;4.72;;;;;;;-140.79;100.00;63287.88;5022833;28;20028;-54
2022/01/04 07:41:44;;;;;;;6.88;5.10;;;;;;;-140.79;100.00;63287.88;5026095;28;20033;-54
2022/01/04 07:44:09;;;;;;;5.97;4.53;;;;;;;-140.79;100.00;63287.88;5023707;28;20785;-54
2022/01/04 07:46:34;;;;;;;6.80;4.80;;;;;;;-140.79;100.00;63287.88;5019881;28;20026;-53
2022/01/04 07:49:00;;;;;;;6.43;4.60;;;;;;;-140.79;100.00;63287.88;5024562;28;20033;-54
2022/01/04 07:51:26;;;;;;;6.53;4.65;;;;;;;-140.79;100.00;63287.88;5025536;28;20411;-53
2022/01/04 07:53:52;;;;;;;6.93;4.47;;;;;;;-140.79;100.00;63287.88;5024905;28;20033;-54
2022/01/04 07:56:17;;;;;;;7.15;4.78;;;;;;;-140.79;100.00;63287.88;5024858;28;20033;-54
2022/01/04 07:58:43;;;;;;;6.82;4.80;;;;;;;-140.79;100.00;63287.88;5024762;28;20495;-55
2022/01/04 08:01:08;;;;;;;6.18;4.70;;;;;;;-140.79;100.00;63287.88;5024713;28;20025;-54
2022/01/04 08:03:33;;;;;;;6.43;4.85;;;;;;;-140.79;100.00;63287.88;5025603;28;20657;-54
2022/01/04 08:05:59;;;;;;;6.80;4.70;;;;;;;-140.79;100.00;63287.88;5025096;28;20029;-53
2022/01/04 08:08:24;;;;;;;6.72;5.03;;;;;;;-140.79;100.00;63287.88;5024963;28;20033;-54
2022/01/04 08:10:51;;;;;;;7.72;5.20;;;;;;;-140.79;100.00;63287.88;5025026;28;20045;-54
2022/01/04 08:13:17;;;;;;;7.25;5.05;;;;;;;-140.79;100.00;63287.88;5024805;28;20040;-54
2022/01/04 08:15:42;;;;;;;7.25;5.07;;;;;;;-140.79;100.00;63287.88;5024946;28;20037;-54
2022/01/04 08:18:08;;;;;;;5.95;4.60;;;;;;;-140.79;100.00;63287.88;5024413;28;20049;-54
2022/01/04 08:20:33;;;;;;;7.18;4.75;;;;;;;-140.79;100.00;63287.88;5024798;28;20637;-53
2022/01/04 08:22:59;;;;;;;7.28;5.10;;;;;;;-140.79;100.00;63287.88;5024431;28;20053;-55
2022/01/04 08:25:24;;;;;;;7.75;5.20;;;;;;;-140.79;100.00;63287.88;5023769;28;20033;-55
2022/01/04 08:27:51;;;;;;;6.78;4.93;;;;;;;-140.79;100.00;63287.88;5024651;28;20038;-54
2022/01/04 08:30:16;;;;;;;6.70;4.47;;;;;;;-140.79;100.00;63287.88;5024411;28;20057;-55
2022/01/04 08:32:42;;;;;;;6.28;4.95;;;;;;;-140.79;100.00;63287.88;5023197;28;20554;-53
2022/01/04 08:35:08;;;;;;;8.05;5.45;;;;;;;-140.79;100.00;63287.88;5024734;28;20499;-54
2022/01/04 08:37:33;;;;;;;7.72;5.40;;;;;;;-140.79;100.00;63287.88;5024592;28;20030;-54
2022/01/04 08:39:59;;;;;;;6.78;5.45;;;;;;;-140.79;100.00;63287.88;5024353;28;20064;-55
2022/01/04 08:42:25;;;;;;;6.32;5.47;;;;;;;-140.79;100.00;63287.88;5024027;28;20022;-54
2022/01/04 08:44:51;;;;;;;7.85;5.53;;;;;;;-140.79;100.00;63287.88;5024419;28;20479;-54
2022/01/04 08:47:16;;;;;;;8.90;5.85;;;;;;;-140.79;100.00;63287.88;5023577;28;20040;-56
2022/01/04 08:49:42;;;;;;;8.43;5.43;;;;;;;-140.79;100.00;63287.88;5024425;28;20029;-54
2022/01/04 08:52:07;;;;;;;7.80;5.30;;;;;;;-140.79;100.00;63287.88;5023991;28;20037;-54
2022/01/04 08:54:33;;;;;;;7.32;5.43;;;;;;;-140.79;100.00;63287.88;5012794;28;20037;-54
2022/01/04 08:56:58;;;;;;;6.97;5.28;;;;;;;-140.79;100.00;63287.88;5004775;28;20030;-54
2022/01/04 08:59:25;;;;;;;7.25;5.47;;;;;;;-140.79;100.00;63287.88;5011641;28;20024;-53
2022/01/04 09:01:50;;;;;;;7.72;6.15;;;;;;;-140.79;100.00;63287.88;5007321;28;20026;-55
2022/01/04 09:04:15;;;;;;;8.38;5.85;;;;;;;-140.79;100.00;63287.88;5006014;28;20099;-54
2022/01/04 09:06:41;;;;;;;6.95;5.75;;;;;;;-140.79;100.00;63287.88;5023912;28;20029;-54
2022/01/04 09:09:06;;;;;;;6.88;5.57;;;;;;;-140.79;100.00;63287.88;5024069;28;20033;-53
2022/01/04 09:11:32;;;;;;;7.20;5.40;;;;;;;-140.79;100.00;63287.88;5024006;28;20059;-54
2022/01/04 09:19:23;;;;;;;8.18;6.22;;;;;;;-140.79;100.00;63287.88;5023218;28;20052;-54
2022/01/04 09:21:49;;;;;;;8.48;5.80;;;;;;;-140.79;100.00;63287.88;5039180;28;20484;-53
2022/01/04 09:24:14;;;;;;;7.90;6.18;;;;;;;-140.79;100.00;63287.88;5013522;28;20680;-53
2022/01/04 09:26:40;;;;;;;8.40;6.25;;;;;;;-140.79;100.00;63287.88;5007353;28;20053;-54
2022/01/04 09:29:05;;;;;;;8.98;6.65;;;;;;;-140.79;100.00;63287.88;5011741;28;20099;-54
2022/01/04 09:31:30;;;;;;;8.35;6.55;;;;;;;-140.79;100.00;63287.88;5020365;28;20033;-54
2022/01/04 09:33:57;;;;;;;10.23;6.28;;;;;;;-140.79;100.00;63287.88;5023830;28;20099;-54
2022/01/04 09:36:22;;;;;;;8.68;6.57;;;;;;;-140.79;100.00;63287.88;5024912;28;20037;-55
2022/01/04 09:38:48;;;;;;;10.45;6.22;;;;;;;-140.79;100.00;63287.88;5026934;28;20025;-55
2022/01/04 09:41:13;;;;;;;8.30;6.38;;;;;;;-140.79;100.00;63287.88;5027202;28;20040;-55
2022/01/04 09:43:39;;;;;;;9.02;6.97;;;;;;;-140.79;100.00;63287.88;5027582;28;20030;-53
2022/01/04 09:46:04;;;;;;;9.18;6.05;;;;;;;-140.79;100.00;63287.88;5058128;28;20042;-54
2022/01/04 09:48:29;;;;;;;9.95;6.50;;;;;;;-140.79;100.00;63287.88;5026528;28;20042;-54
2022/01/04 09:50:56;;;;;;;8.20;6.47;;;;;;;-140.79;100.00;63287.88;5027879;28;20029;-55
2022/01/04 09:53:22;;;;;;;9.35;6.53;;;;;;;-140.79;100.00;63287.88;5027526;28;20663;-54
2022/01/04 09:55:51;;;;;;;10.10;7.05;;;;;;;-140.79;100.00;63287.88;5026508;28;20029;-55
2022/01/04 09:58:18;;;;;;;9.80;6.78;;;;;;;-140.79;100.00;63287.88;5042461;28;20049;-54
2022/01/04 10:00:43;;;;;;;8.82;6.65;;;;;;;-140.79;100.00;63287.88;5027460;28;20453;-53
2022/01/04 10:03:17;;;;;;;9.32;6.70;;;;;;;-140.79;100.00;63287.88;5027436;28;20113;-53
2022/01/04 10:05:43;;;;;;;8.93;6.78;;;;;;;-140.79;100.00;63287.88;5026695;28;20030;-54
2022/01/04 10:08:09;;;;;;;11.45;6.45;;;;;;;-140.79;100.00;63287.88;5026238;28;20079;-55
2022/01/04 10:10:34;;;;;;;8.65;6.82;;;;;;;-140.79;100.00;63287.88;5025201;28;20026;-54
2022/01/04 10:13:02;;;;;;;10.75;6.95;;;;;;;-140.79;100.00;63287.88;5026491;28;20052;-54
2022/01/04 10:15:29;;;;;;;9.23;6.80;;;;;;;-140.79;100.00;63287.88;5027210;28;20037;-53
2022/01/04 10:17:56;;;;;;;9.65;7.13;;;;;;;-140.79;100.00;63287.88;5026740;28;20033;-54
2022/01/04 10:20:21;;;;;;;10.25;6.93;;;;;;;-140.79;100.00;63287.88;5015238;28;20038;-51
2022/01/04 10:22:47;;;;;;;9.88;6.47;;;;;;;-140.79;100.00;63287.88;5026184;28;20076;-54
2022/01/04 10:25:13;;;;;;;9.95;6.72;;;;;;;-140.79;100.00;63287.88;5026475;28;20037;-53
2022/01/04 10:27:56;;;;;;;9.57;6.82;;;;;;;-140.79;100.00;63287.88;5025861;28;20087;-53
2022/01/04 10:30:27;;;;;;;7.45;6.28;;;;;;;-140.79;100.00;63287.88;5013885;28;20107;-53
2022/01/04 10:32:57;;;;;;;8.63;6.22;;;;;;;-140.79;100.00;63287.88;5023041;28;20068;-53
2022/01/04 10:35:46;;;;;;;9.23;6.53;;;;;;;-140.79;100.00;63287.88;5023823;28;20090;-53
2022/01/04 10:38:21;;;;;;;7.43;6.18;;;;;;;-140.79;100.00;63287.88;5022729;28;20030;-53
2022/01/04 10:40:51;;;;;;;9.75;6.40;;;;;;;-140.79;100.00;63287.88;5026057;28;20044;-54
2022/01/04 10:43:21;;;;;;;8.27;6.47;;;;;;;-140.79;100.00;63287.88;5020802;28;20037;-53
2022/01/04 10:45:48;;;;;;;9.63;6.55;;;;;;;-140.79;100.00;63287.88;5012774;28;20030;-54
2022/01/04 10:48:24;;;;;;;7.65;6.13;;;;;;;-140.79;100.00;63287.88;5021181;28;20029;-53
2022/01/04 10:50:52;;;;;;;8.90;6.88;;;;;;;-140.79;100.00;63287.88;5024078;28;20112;-53
2022/01/04 10:53:25;;;;;;;7.93;6.35;;;;;;;-140.79;100.00;63287.88;5025704;28;20044;-54
2022/01/04 10:55:54;;;;;;;9.45;6.90;;;;;;;-140.79;100.00;63287.88;5020611;28;20026;-53
2022/01/04 10:58:26;;;;;;;8.98;6.80;;;;;;;-140.79;100.00;63287.88;5013363;28;20059;-53
2022/01/04 11:00:56;;;;;;;8.40;6.68;;;;;;;-140.79;100.00;63287.88;5025797;28;20034;-53
2022/01/04 11:03:32;;;;;;;8.52;6.38;;;;;;;-140.79;100.00;63287.88;5024490;28;20025;-54
2022/01/04 11:06:25;;;;;;;8.30;6.50;;;;;;;-140.79;100.00;63287.88;5025495;28;20025;-56
2022/01/04 11:08:50;;;;;;;8.48;7.20;;;;;;;-140.79;100.00;63287.88;5010019;28;20064;-54
2022/01/04 11:11:16;;;;;;;9.38;7.05;;;;;;;-140.79;100.00;63287.88;5021411;28;20404;-55
2022/01/04 11:13:42;;;;;;;9.55;6.78;;;;;;;-140.79;100.00;63287.88;5016435;28;20476;-53
2022/01/04 11:16:07;;;;;;;9.60;6.95;;;;;;;-140.79;100.00;63287.88;5011202;28;20084;-56
2022/01/04 11:18:33;;;;;;;9.23;6.60;;;;;;;-140.79;100.00;63287.88;5018978;28;20053;-54
2022/01/04 11:20:59;;;;;;;8.80;6.95;;;;;;;-140.79;100.00;63287.88;5025291;28;20029;-56
2022/01/04 11:23:29;;;;;;;8.68;7.00;;;;;;;-140.79;100.00;63287.88;5019610;28;20410;-53